Meredith Ashton — WDG4288 — position and weather

sailwx.info

Track history (hours):
 
Tides and Currents Weather Stations Pressure Air Temp Water Temp Dewpoint Dewpoint Depression Visibility Wind Speed Wind Dir Waves Ship Positions

Meredith Ashton

Owner: Andrie Inc., Norton Shores, MI. More information available from US FCC via Universal Licensing System and Coast Guard Vessel Documentation Center.

Last reported at 2018-May-18 13:36 UTC. Time now 2018-May-21 15:01 UTC.
Position N 45°23' W 083°28'.

Length 23 m; draft 3 m.

Type: Towing. MMSI: 338300000.

Date/timePositionNaut miles runAvg speedWind from/ knotsBaromVisibWave heightAir tempDewpointWater temp
2018-May-18 13:36N 45°23' W 083°28'0 4.5
2018-May-18 13:30N 45°23' W 083°29'2 4.5
2018-May-18 12:57N 45°25' W 083°31'2 4.5
2018-May-18 12:30N 45°27' W 083°32'2 4.6
2018-May-18 12:00N 45°28' W 083°34'2 4.6
2018-May-18 11:30N 45°30' W 083°36'3 4.8
2018-May-18 10:56N 45°32' W 083°38'2 4.8
2018-May-18 10:30N 45°34' W 083°40'  
2018-May-12 05:12N 46°50' W 091°38'1 5.1
2018-May-12 04:59N 46°50' W 091°39'2 5.0
2018-May-12 04:30N 46°48' W 091°42'2 5.0
2018-May-12 04:00N 46°47' W 091°45'2 4.6
2018-May-12 03:30N 46°46' W 091°48'2 4.4
2018-May-12 03:00N 46°45' W 091°51'2 4.3
2018-May-12 02:30N 46°44' W 091°54'2 4.0
2018-May-12 02:00N 46°44' W 091°57'1 2.9
2018-May-12 01:29N 46°43' W 091°59'1 2.5
2018-May-12 01:00N 46°43' W 092°00'2 3.8
2018-May-12 00:30N 46°43' W 092°03'2 3.7
2018-May-12 00:00N 46°44' W 092°05'0 0.2
2018-May-11 23:30N 46°44' W 092°05'  
2018-May-08 19:46N 46°44' W 092°05'1 3.2
2018-May-08 19:30N 46°45' W 092°06'1 1.0
2018-May-08 19:00N 46°44' W 092°06'0 0.0
2018-May-08 18:30N 46°44' W 092°06'0 0.0
2018-May-08 18:00N 46°44' W 092°06'0 0.0
2018-May-08 17:30N 46°44' W 092°06'0 0.0
2018-May-08 17:00N 46°44' W 092°06'0 0.0
2018-May-08 16:30N 46°44' W 092°06'0 0.0
2018-May-08 16:00N 46°44' W 092°06'0 0.0
2018-May-08 15:30N 46°44' W 092°06'0 0.0
2018-May-08 15:00N 46°44' W 092°06'0 0.0
2018-May-08 14:30N 46°44' W 092°06'0 0.0
2018-May-08 13:59N 46°44' W 092°06'  
Track history (hours):
 
Tides and Currents Weather Stations Pressure Air Temp Water Temp Dewpoint Dewpoint Depression Visibility Wind Speed Wind Dir Waves Ship Positions

Meredith Ashton

Owner: Andrie Inc., Norton Shores, MI. More information available from US FCC via Universal Licensing System and Coast Guard Vessel Documentation Center.

Last reported at 2018-May-18 13:36 UTC. Time now 2018-May-21 15:01 UTC.
Position N 45°23' W 083°28'.

Length 23 m; draft 3 m.

Type: Towing. MMSI: 338300000.

Date/timePositionNaut miles runAvg speedWind from/ knotsBaromVisibWave heightAir tempDewpointWater temp
2018-May-18 13:36N 45°23' W 083°28'0 4.5
2018-May-18 13:30N 45°23' W 083°29'2 4.5
2018-May-18 12:57N 45°25' W 083°31'2 4.5
2018-May-18 12:30N 45°27' W 083°32'2 4.6
2018-May-18 12:00N 45°28' W 083°34'2 4.6
2018-May-18 11:30N 45°30' W 083°36'3 4.8
2018-May-18 10:56N 45°32' W 083°38'2 4.8
2018-May-18 10:30N 45°34' W 083°40'  
2018-May-12 05:12N 46°50' W 091°38'1 5.1
2018-May-12 04:59N 46°50' W 091°39'2 5.0
2018-May-12 04:30N 46°48' W 091°42'2 5.0
2018-May-12 04:00N 46°47' W 091°45'2 4.6
2018-May-12 03:30N 46°46' W 091°48'2 4.4
2018-May-12 03:00N 46°45' W 091°51'2 4.3
2018-May-12 02:30N 46°44' W 091°54'2 4.0
2018-May-12 02:00N 46°44' W 091°57'1 2.9
2018-May-12 01:29N 46°43' W 091°59'1 2.5
2018-May-12 01:00N 46°43' W 092°00'2 3.8
2018-May-12 00:30N 46°43' W 092°03'2 3.7
2018-May-12 00:00N 46°44' W 092°05'0 0.2
2018-May-11 23:30N 46°44' W 092°05'  
2018-May-08 19:46N 46°44' W 092°05'1 3.2
2018-May-08 19:30N 46°45' W 092°06'1 1.0
2018-May-08 19:00N 46°44' W 092°06'0 0.0
2018-May-08 18:30N 46°44' W 092°06'0 0.0
2018-May-08 18:00N 46°44' W 092°06'0 0.0
2018-May-08 17:30N 46°44' W 092°06'0 0.0
2018-May-08 17:00N 46°44' W 092°06'0 0.0
2018-May-08 16:30N 46°44' W 092°06'0 0.0
2018-May-08 16:00N 46°44' W 092°06'0 0.0
2018-May-08 15:30N 46°44' W 092°06'0 0.0
2018-May-08 15:00N 46°44' W 092°06'0 0.0
2018-May-08 14:30N 46°44' W 092°06'0 0.0
2018-May-08 13:59N 46°44' W 092°06'  

Dump ship's entire track history